PWSweather.com
Personal Weather Stations
Station Observations
SUBOTICARS
SuboticaYU

SuboticaYU

Lat: 46.1296717, Lon: 19.641551

Elevation: 361

Station Type: Nexus

http://sumeteo.info

High Low Average
Temperature 29.7°F-1.3°C 24.1°F-4.4°C 26.7°F-2.9°C
Dew Point 27.3°F-2.6°C 20.3°F-6.5°C 23.6°F-4.7°C
Winds 8.1 mph 13.0 kmh 2.3 mph 3.7 kmh 5.0 mph S8.0 kmh S
Wind Gusts 11.5 mph18.5 kmh 2.3 mph3.7 kmh 6.0 mph9.7 kmh
Humidity 95% 80% 88%
Pressure 29.60 in1002.4 mb 29.39 in995.3 mb -
Precipitation 0.00 in0.0 mm - -
Hour Temp Dew Point Humidity Winds Wind Gusts Pressure Precip Precip Rate Daily Precip Total
12:00 AM 28.8°F-1.8°C 27.3°F-2.6°C 94% 4.6 mph NE7.4 kmh NE 4.6 mph7.4 kmh 29.40 in995.6 mb - 0.00 in0.0 mm 0.00 in0.0 mm
12:10 AM 28.6°F-1.9°C 27.1°F-2.7°C 94% 3.5 mph NE5.6 kmh NE 4.6 mph7.4 kmh 29.39 in995.3 mb - 0.00 in0.0 mm 0.00 in0.0 mm
12:15 AM 28.6°F-1.9°C 27.1°F-2.7°C 94% 3.5 mph NE5.6 kmh NE 4.6 mph7.4 kmh 29.39 in995.3 mb - 0.00 in0.0 mm 0.00 in0.0 mm
12:20 AM 28.6°F-1.9°C 26.6°F-3.0°C 92% 3.5 mph ENE5.6 kmh ENE 3.5 mph5.6 kmh 29.40 in995.6 mb - 0.00 in0.0 mm 0.00 in0.0 mm
12:25 AM 28.6°F-1.9°C 26.6°F-3.0°C 92% 4.6 mph NE7.4 kmh NE 6.9 mph11.1 kmh 29.40 in995.6 mb - 0.00 in0.0 mm 0.00 in0.0 mm
12:30 AM 28.5°F-1.9°C 26.4°F-3.1°C 92% 2.3 mph NE3.7 kmh NE 3.5 mph5.6 kmh 29.40 in995.6 mb - 0.00 in0.0 mm 0.00 in0.0 mm
12:35 AM 28.6°F-1.9°C 26.3°F-3.2°C 91% 3.5 mph ENE5.6 kmh ENE 4.6 mph7.4 kmh 29.40 in995.6 mb - 0.00 in0.0 mm 0.00 in0.0 mm
12:40 AM 28.6°F-1.9°C 26.3°F-3.2°C 91% 2.3 mph N3.7 kmh N 2.3 mph3.7 kmh 29.40 in995.6 mb - 0.00 in0.0 mm 0.00 in0.0 mm
12:45 AM 28.6°F-1.9°C 26.3°F-3.2°C 91% 2.3 mph NNW3.7 kmh NNW 3.5 mph5.6 kmh 29.40 in995.6 mb - 0.00 in0.0 mm 0.00 in0.0 mm
12:50 AM 28.4°F-2.0°C 26.4°F-3.1°C 92% 4.6 mph NNE7.4 kmh NNE 3.5 mph5.6 kmh 29.40 in995.6 mb - 0.00 in0.0 mm 0.00 in0.0 mm
12:55 AM 28.4°F-2.0°C 26.9°F-2.8°C 94% 2.3 mph N3.7 kmh N 3.5 mph5.6 kmh 29.40 in995.6 mb - 0.00 in0.0 mm 0.00 in0.0 mm
01:00 AM 28.4°F-2.0°C 26.9°F-2.8°C 94% 3.5 mph NNE5.6 kmh NNE 3.5 mph5.6 kmh 29.40 in995.6 mb - 0.00 in0.0 mm 0.00 in0.0 mm
01:10 AM 28.4°F-2.0°C 26.9°F-2.8°C 94% 3.5 mph NE5.6 kmh NE 3.5 mph5.6 kmh 29.40 in995.6 mb - 0.00 in0.0 mm 0.00 in0.0 mm
01:15 AM 28.6°F-1.9°C 26.3°F-3.2°C 91% 3.5 mph NE5.6 kmh NE 3.5 mph5.6 kmh 29.41 in995.9 mb - 0.00 in0.0 mm 0.00 in0.0 mm
01:20 AM 28.8°F-1.8°C 26.7°F-2.9°C 92% 2.3 mph NNE3.7 kmh NNE 2.3 mph3.7 kmh 29.41 in995.9 mb - 0.00 in0.0 mm 0.00 in0.0 mm
01:25 AM 28.8°F-1.8°C 26.7°F-2.9°C 92% 2.3 mph NE3.7 kmh NE 3.5 mph5.6 kmh 29.41 in995.9 mb - 0.00 in0.0 mm 0.00 in0.0 mm
01:30 AM 28.8°F-1.8°C 26.7°F-2.9°C 92% 4.6 mph NNE7.4 kmh NNE 5.8 mph9.3 kmh 29.41 in995.9 mb - 0.00 in0.0 mm 0.00 in0.0 mm
01:35 AM 28.6°F-1.9°C 26.6°F-3.0°C 92% 4.6 mph ENE7.4 kmh ENE 6.9 mph11.1 kmh 29.40 in995.6 mb - 0.00 in0.0 mm 0.00 in0.0 mm
01:40 AM 28.6°F-1.9°C 26.6°F-3.0°C 92% 3.5 mph NNE5.6 kmh NNE 5.8 mph9.3 kmh 29.40 in995.6 mb - 0.00 in0.0 mm 0.00 in0.0 mm
01:45 AM 28.8°F-1.8°C 26.7°F-2.9°C 92% 4.6 mph NNE7.4 kmh NNE 4.6 mph7.4 kmh 29.40 in995.6 mb - 0.00 in0.0 mm 0.00 in0.0 mm
01:50 AM 28.8°F-1.8°C 26.7°F-2.9°C 92% 3.5 mph NE5.6 kmh NE 5.8 mph9.3 kmh 29.41 in995.9 mb - 0.00 in0.0 mm 0.00 in0.0 mm
01:55 AM 28.6°F-1.9°C 26.6°F-3.0°C 92% 2.3 mph NNE3.7 kmh NNE 3.5 mph5.6 kmh 29.41 in995.9 mb - 0.00 in0.0 mm 0.00 in0.0 mm
02:00 AM 28.8°F-1.8°C 26.7°F-2.9°C 92% 4.6 mph NNE7.4 kmh NNE 5.8 mph9.3 kmh 29.41 in995.9 mb - 0.00 in0.0 mm 0.00 in0.0 mm
02:10 AM 28.4°F-2.0°C 26.9°F-2.8°C 94% 3.5 mph NNE5.6 kmh NNE 5.8 mph9.3 kmh 29.41 in995.9 mb - 0.00 in0.0 mm 0.00 in0.0 mm
02:15 AM 28.4°F-2.0°C 26.9°F-2.8°C 94% 4.6 mph NNE7.4 kmh NNE 5.8 mph9.3 kmh 29.42 in996.3 mb - 0.00 in0.0 mm 0.00 in0.0 mm
02:20 AM 28.4°F-2.0°C 26.9°F-2.8°C 94% 3.5 mph NE5.6 kmh NE 4.6 mph7.4 kmh 29.42 in996.3 mb - 0.00 in0.0 mm 0.00 in0.0 mm
02:25 AM 28.4°F-2.0°C 26.9°F-2.8°C 94% 4.6 mph NNE7.4 kmh NNE 5.8 mph9.3 kmh 29.42 in996.3 mb - 0.00 in0.0 mm 0.00 in0.0 mm
02:30 AM 28.4°F-2.0°C 27.2°F-2.7°C 95% 4.6 mph NE7.4 kmh NE 4.6 mph7.4 kmh 29.42 in996.3 mb - 0.00 in0.0 mm 0.00 in0.0 mm
02:35 AM 28.2°F-2.1°C 27.0°F-2.8°C 95% 4.6 mph NNE7.4 kmh NNE 3.5 mph5.6 kmh 29.42 in996.3 mb - 0.00 in0.0 mm 0.00 in0.0 mm
02:40 AM 28.2°F-2.1°C 27.0°F-2.8°C 95% 4.6 mph NE7.4 kmh NE 8.1 mph13.0 kmh 29.42 in996.3 mb - 0.00 in0.0 mm 0.00 in0.0 mm
02:45 AM 28.2°F-2.1°C 27.0°F-2.8°C 95% 3.5 mph N5.6 kmh N 3.5 mph5.6 kmh 29.42 in996.3 mb - 0.00 in0.0 mm 0.00 in0.0 mm
02:50 AM 28.2°F-2.1°C 27.0°F-2.8°C 95% 3.5 mph NE5.6 kmh NE 3.5 mph5.6 kmh 29.42 in996.3 mb - 0.00 in0.0 mm 0.00 in0.0 mm
02:55 AM 28.2°F-2.1°C 27.0°F-2.8°C 95% 3.5 mph NNE5.6 kmh NNE 3.5 mph5.6 kmh 29.42 in996.3 mb - 0.00 in0.0 mm 0.00 in0.0 mm
03:00 AM 28.0°F-2.2°C 26.8°F-2.9°C 95% 3.5 mph NNE5.6 kmh NNE 6.9 mph11.1 kmh 29.42 in996.3 mb - 0.00 in0.0 mm 0.00 in0.0 mm
03:10 AM 28.0°F-2.2°C 26.8°F-2.9°C 95% 3.5 mph NNE5.6 kmh NNE 5.8 mph9.3 kmh 29.42 in996.3 mb - 0.00 in0.0 mm 0.00 in0.0 mm
03:15 AM 28.0°F-2.2°C 26.8°F-2.9°C 95% 4.6 mph NE7.4 kmh NE 4.6 mph7.4 kmh 29.42 in996.3 mb - 0.00 in0.0 mm 0.00 in0.0 mm
03:20 AM 27.9°F-2.3°C 26.6°F-3.0°C 95% 3.5 mph NNW5.6 kmh NNW 3.5 mph5.6 kmh 29.42 in996.3 mb - 0.00 in0.0 mm 0.00 in0.0 mm
03:25 AM 27.9°F-2.3°C 26.6°F-3.0°C 95% 4.6 mph NNW7.4 kmh NNW 5.8 mph9.3 kmh 29.42 in996.3 mb - 0.00 in0.0 mm 0.00 in0.0 mm
03:30 AM 27.7°F-2.4°C 26.4°F-3.1°C 95% 5.8 mph NNE9.3 kmh NNE 4.6 mph7.4 kmh 29.43 in996.6 mb - 0.00 in0.0 mm 0.00 in0.0 mm
03:35 AM 27.7°F-2.4°C 26.4°F-3.1°C 95% 3.5 mph NNE5.6 kmh NNE 3.5 mph5.6 kmh 29.43 in996.6 mb - 0.00 in0.0 mm 0.00 in0.0 mm
03:40 AM 27.7°F-2.4°C 26.4°F-3.1°C 95% 3.5 mph NW5.6 kmh NW 5.8 mph9.3 kmh 29.43 in996.6 mb - 0.00 in0.0 mm 0.00 in0.0 mm
03:55 AM 27.3°F-2.6°C 26.1°F-3.3°C 95% 4.6 mph N7.4 kmh N 4.6 mph7.4 kmh 29.43 in996.6 mb - 0.00 in0.0 mm 0.00 in0.0 mm
04:00 AM 27.3°F-2.6°C 26.1°F-3.3°C 95% 3.5 mph NNE5.6 kmh NNE 3.5 mph5.6 kmh 29.42 in996.3 mb - 0.00 in0.0 mm 0.00 in0.0 mm
04:10 AM 27.1°F-2.7°C 25.9°F-3.4°C 95% 4.6 mph NE7.4 kmh NE 3.5 mph5.6 kmh 29.42 in996.3 mb - 0.00 in0.0 mm 0.00 in0.0 mm
04:15 AM 27.1°F-2.7°C 25.9°F-3.4°C 95% 3.5 mph N5.6 kmh N 3.5 mph5.6 kmh 29.42 in996.3 mb - 0.00 in0.0 mm 0.00 in0.0 mm
04:20 AM 27.1°F-2.7°C 25.9°F-3.4°C 95% 3.5 mph N5.6 kmh N 4.6 mph7.4 kmh 29.42 in996.3 mb - 0.00 in0.0 mm 0.00 in0.0 mm
04:25 AM 27.1°F-2.7°C 25.9°F-3.4°C 95% 4.6 mph N7.4 kmh N 3.5 mph5.6 kmh 29.42 in996.3 mb - 0.00 in0.0 mm 0.00 in0.0 mm
04:30 AM 27.0°F-2.8°C 25.7°F-3.5°C 95% 3.5 mph NNE5.6 kmh NNE 5.8 mph9.3 kmh 29.42 in996.3 mb - 0.00 in0.0 mm 0.00 in0.0 mm
04:35 AM 26.9°F-2.8°C 25.7°F-3.5°C 95% 3.5 mph N5.6 kmh N 3.5 mph5.6 kmh 29.42 in996.3 mb - 0.00 in0.0 mm 0.00 in0.0 mm
04:40 AM 26.8°F-2.9°C 25.5°F-3.6°C 95% 4.6 mph NNE7.4 kmh NNE 5.8 mph9.3 kmh 29.42 in996.3 mb - 0.00 in0.0 mm 0.00 in0.0 mm
04:45 AM 26.8°F-2.9°C 25.5°F-3.6°C 95% 4.6 mph NNE7.4 kmh NNE 5.8 mph9.3 kmh 29.43 in996.6 mb - 0.00 in0.0 mm 0.00 in0.0 mm
04:50 AM 26.8°F-2.9°C 25.5°F-3.6°C 95% 4.6 mph ENE7.4 kmh ENE 5.8 mph9.3 kmh 29.43 in996.6 mb - 0.00 in0.0 mm 0.00 in0.0 mm
04:55 AM 26.6°F-3.0°C 25.4°F-3.7°C 95% 4.6 mph NNE7.4 kmh NNE 5.8 mph9.3 kmh 29.43 in996.6 mb - 0.00 in0.0 mm 0.00 in0.0 mm
05:00 AM 26.8°F-2.9°C 25.5°F-3.6°C 95% 3.5 mph NNE5.6 kmh NNE 5.8 mph9.3 kmh 29.43 in996.6 mb - 0.00 in0.0 mm 0.00 in0.0 mm
05:10 AM 26.8°F-2.9°C 25.5°F-3.6°C 95% 4.6 mph N7.4 kmh N 4.6 mph7.4 kmh 29.43 in996.6 mb - 0.00 in0.0 mm 0.00 in0.0 mm
05:15 AM 26.6°F-3.0°C 25.4°F-3.7°C 95% 3.5 mph NE5.6 kmh NE 6.9 mph11.1 kmh 29.44 in997.0 mb - 0.00 in0.0 mm 0.00 in0.0 mm
05:20 AM 26.6°F-3.0°C 25.4°F-3.7°C 95% 3.5 mph NNE5.6 kmh NNE 3.5 mph5.6 kmh 29.44 in997.0 mb - 0.00 in0.0 mm 0.00 in0.0 mm
05:25 AM 26.8°F-2.9°C 25.5°F-3.6°C 95% 3.5 mph NE5.6 kmh NE 4.6 mph7.4 kmh 29.44 in997.0 mb - 0.00 in0.0 mm 0.00 in0.0 mm
05:30 AM 26.8°F-2.9°C 25.5°F-3.6°C 95% 3.5 mph NNE5.6 kmh NNE 3.5 mph5.6 kmh 29.44 in997.0 mb - 0.00 in0.0 mm 0.00 in0.0 mm
05:35 AM 26.8°F-2.9°C 25.5°F-3.6°C 95% 3.5 mph NNW5.6 kmh NNW 3.5 mph5.6 kmh 29.44 in997.0 mb - 0.00 in0.0 mm 0.00 in0.0 mm
05:40 AM 26.6°F-3.0°C 25.4°F-3.7°C 95% 4.6 mph NNE7.4 kmh NNE 4.6 mph7.4 kmh 29.44 in997.0 mb - 0.00 in0.0 mm 0.00 in0.0 mm
05:45 AM 26.6°F-3.0°C 25.4°F-3.7°C 95% 5.8 mph NE9.3 kmh NE 5.8 mph9.3 kmh 29.45 in997.3 mb - 0.00 in0.0 mm 0.00 in0.0 mm
05:50 AM 26.6°F-3.0°C 25.4°F-3.7°C 95% 4.6 mph NE7.4 kmh NE 4.6 mph7.4 kmh 29.45 in997.3 mb - 0.00 in0.0 mm 0.00 in0.0 mm
05:55 AM 26.6°F-3.0°C 25.4°F-3.7°C 95% 3.5 mph NNE5.6 kmh NNE 3.5 mph5.6 kmh 29.45 in997.3 mb - 0.00 in0.0 mm 0.00 in0.0 mm
06:00 AM 26.4°F-3.1°C 25.2°F-3.8°C 95% 4.6 mph N7.4 kmh N 5.8 mph9.3 kmh 29.45 in997.3 mb - 0.00 in0.0 mm 0.00 in0.0 mm
06:10 AM 26.2°F-3.2°C 24.7°F-4.1°C 94% 5.8 mph NNE9.3 kmh NNE 6.9 mph11.1 kmh 29.45 in997.3 mb - 0.00 in0.0 mm 0.00 in0.0 mm
06:15 AM 26.2°F-3.2°C 24.7°F-4.1°C 94% 3.5 mph NNE5.6 kmh NNE 4.6 mph7.4 kmh 29.45 in997.3 mb - 0.00 in0.0 mm 0.00 in0.0 mm
06:20 AM 26.2°F-3.2°C 24.7°F-4.1°C 94% 4.6 mph NNE7.4 kmh NNE 4.6 mph7.4 kmh 29.46 in997.6 mb - 0.00 in0.0 mm 0.00 in0.0 mm
06:25 AM 26.2°F-3.2°C 24.7°F-4.1°C 94% 5.8 mph NNE9.3 kmh NNE 6.9 mph11.1 kmh 29.46 in997.6 mb - 0.00 in0.0 mm 0.00 in0.0 mm
06:30 AM 26.2°F-3.2°C 24.7°F-4.1°C 94% 4.6 mph NNE7.4 kmh NNE 5.8 mph9.3 kmh 29.46 in997.6 mb - 0.00 in0.0 mm 0.00 in0.0 mm
06:35 AM 26.1°F-3.3°C 24.6°F-4.1°C 94% 4.6 mph NNW7.4 kmh NNW 5.8 mph9.3 kmh 29.46 in997.6 mb - 0.00 in0.0 mm 0.00 in0.0 mm
06:40 AM 25.9°F-3.4°C 24.4°F-4.2°C 94% 5.8 mph NNE9.3 kmh NNE 5.8 mph9.3 kmh 29.46 in997.6 mb - 0.00 in0.0 mm 0.00 in0.0 mm
06:45 AM 25.7°F-3.5°C 24.2°F-4.3°C 94% 5.8 mph NE9.3 kmh NE 8.1 mph13.0 kmh 29.46 in997.6 mb - 0.00 in0.0 mm 0.00 in0.0 mm
06:50 AM 25.7°F-3.5°C 24.2°F-4.3°C 94% 5.8 mph NNE9.3 kmh NNE 6.9 mph11.1 kmh 29.46 in997.6 mb - 0.00 in0.0 mm 0.00 in0.0 mm
06:55 AM 25.7°F-3.5°C 24.2°F-4.3°C 94% 3.5 mph NNE5.6 kmh NNE 5.8 mph9.3 kmh 29.46 in997.6 mb - 0.00 in0.0 mm 0.00 in0.0 mm
07:00 AM 25.5°F-3.6°C 24.0°F-4.4°C 94% 5.8 mph NE9.3 kmh NE 5.8 mph9.3 kmh 29.46 in997.6 mb - 0.00 in0.0 mm 0.00 in0.0 mm
07:10 AM 25.2°F-3.8°C 23.2°F-4.9°C 92% 5.8 mph NE9.3 kmh NE 5.8 mph9.3 kmh 29.46 in997.6 mb - 0.00 in0.0 mm 0.00 in0.0 mm
07:15 AM 25.2°F-3.8°C 23.2°F-4.9°C 92% 4.6 mph NNE7.4 kmh NNE 5.8 mph9.3 kmh 29.46 in997.6 mb - 0.00 in0.0 mm 0.00 in0.0 mm
07:20 AM 25.2°F-3.8°C 23.2°F-4.9°C 92% 4.6 mph NNE7.4 kmh NNE 4.6 mph7.4 kmh 29.47 in998.0 mb - 0.00 in0.0 mm 0.00 in0.0 mm
07:25 AM 25.2°F-3.8°C 23.2°F-4.9°C 92% 4.6 mph NE7.4 kmh NE 3.5 mph5.6 kmh 29.47 in998.0 mb - 0.00 in0.0 mm 0.00 in0.0 mm
07:30 AM 25.2°F-3.8°C 23.2°F-4.9°C 92% 3.5 mph NNE5.6 kmh NNE 3.5 mph5.6 kmh 29.47 in998.0 mb - 0.00 in0.0 mm 0.00 in0.0 mm
07:35 AM 25.2°F-3.8°C 23.2°F-4.9°C 92% 5.8 mph NE9.3 kmh NE 6.9 mph11.1 kmh 29.48 in998.3 mb - 0.00 in0.0 mm 0.00 in0.0 mm
07:40 AM 25.0°F-3.9°C 23.0°F-5.0°C 92% 4.6 mph NNE7.4 kmh NNE 4.6 mph7.4 kmh 29.48 in998.3 mb - 0.00 in0.0 mm 0.00 in0.0 mm
07:45 AM 24.8°F-4.0°C 22.8°F-5.1°C 92% 4.6 mph NE7.4 kmh NE 5.8 mph9.3 kmh 29.48 in998.3 mb - 0.00 in0.0 mm 0.00 in0.0 mm
07:50 AM 24.6°F-4.1°C 22.6°F-5.2°C 92% 4.6 mph NE7.4 kmh NE 5.8 mph9.3 kmh 29.49 in998.6 mb - 0.00 in0.0 mm 0.00 in0.0 mm
07:55 AM 24.3°F-4.3°C 22.1°F-5.5°C 91% 4.6 mph N7.4 kmh N 5.8 mph9.3 kmh 29.49 in998.6 mb - 0.00 in0.0 mm 0.00 in0.0 mm
08:00 AM 24.1°F-4.4°C 21.8°F-5.7°C 91% 5.8 mph NNE9.3 kmh NNE 8.1 mph13.0 kmh 29.49 in998.6 mb - 0.00 in0.0 mm 0.00 in0.0 mm
08:10 AM 24.1°F-4.4°C 21.8°F-5.7°C 91% 4.6 mph NE7.4 kmh NE 5.8 mph9.3 kmh 29.49 in998.6 mb - 0.00 in0.0 mm 0.00 in0.0 mm
08:15 AM 24.1°F-4.4°C 21.8°F-5.7°C 91% 5.8 mph NNE9.3 kmh NNE 8.1 mph13.0 kmh 29.49 in998.6 mb - 0.00 in0.0 mm 0.00 in0.0 mm
08:20 AM 24.1°F-4.4°C 21.8°F-5.7°C 91% 4.6 mph NNE7.4 kmh NNE 5.8 mph9.3 kmh 29.49 in998.6 mb - 0.00 in0.0 mm 0.00 in0.0 mm
08:25 AM 24.3°F-4.3°C 22.0°F-5.6°C 91% 3.5 mph N5.6 kmh N 4.6 mph7.4 kmh 29.49 in998.6 mb - 0.00 in0.0 mm 0.00 in0.0 mm
08:30 AM 24.1°F-4.4°C 21.8°F-5.7°C 91% 4.6 mph N7.4 kmh N 6.9 mph11.1 kmh 29.49 in998.6 mb - 0.00 in0.0 mm 0.00 in0.0 mm
08:35 AM 24.1°F-4.4°C 21.8°F-5.7°C 91% 4.6 mph NE7.4 kmh NE 6.9 mph11.1 kmh 29.50 in999.0 mb - 0.00 in0.0 mm 0.00 in0.0 mm
08:40 AM 24.3°F-4.3°C 22.0°F-5.6°C 91% 3.5 mph N5.6 kmh N 4.6 mph7.4 kmh 29.50 in999.0 mb - 0.00 in0.0 mm 0.00 in0.0 mm
08:45 AM 24.3°F-4.3°C 22.0°F-5.6°C 91% 3.5 mph NNE5.6 kmh NNE 5.8 mph9.3 kmh 29.50 in999.0 mb - 0.00 in0.0 mm 0.00 in0.0 mm
08:50 AM 24.1°F-4.4°C 21.8°F-5.7°C 91% 4.6 mph N7.4 kmh N 5.8 mph9.3 kmh 29.50 in999.0 mb - 0.00 in0.0 mm 0.00 in0.0 mm
08:55 AM 24.1°F-4.4°C 21.8°F-5.7°C 91% 4.6 mph NNW7.4 kmh NNW 5.8 mph9.3 kmh 29.50 in999.0 mb - 0.00 in0.0 mm 0.00 in0.0 mm
09:00 AM 24.3°F-4.3°C 22.0°F-5.6°C 91% 4.6 mph NE7.4 kmh NE 4.6 mph7.4 kmh 29.50 in999.0 mb - 0.00 in0.0 mm 0.00 in0.0 mm
09:10 AM 24.6°F-4.1°C 22.4°F-5.3°C 91% 3.5 mph NNW5.6 kmh NNW 4.6 mph7.4 kmh 29.51 in999.3 mb - 0.00 in0.0 mm 0.00 in0.0 mm
09:15 AM 24.4°F-4.2°C 22.2°F-5.4°C 91% 3.5 mph N5.6 kmh N 4.6 mph7.4 kmh 29.51 in999.3 mb - 0.00 in0.0 mm 0.00 in0.0 mm
09:20 AM 24.8°F-4.0°C 22.5°F-5.3°C 91% 3.5 mph N5.6 kmh N 3.5 mph5.6 kmh 29.51 in999.3 mb - 0.00 in0.0 mm 0.00 in0.0 mm
09:25 AM 25.1°F-3.8°C 23.1°F-4.9°C 92% 3.5 mph NNW5.6 kmh NNW 4.6 mph7.4 kmh 29.51 in999.3 mb - 0.00 in0.0 mm 0.00 in0.0 mm
09:30 AM 25.2°F-3.8°C 23.2°F-4.9°C 92% 3.5 mph NNE5.6 kmh NNE 4.6 mph7.4 kmh 29.51 in999.3 mb - 0.00 in0.0 mm 0.00 in0.0 mm
09:35 AM 25.3°F-3.7°C 23.3°F-4.8°C 92% 3.5 mph NE5.6 kmh NE 4.6 mph7.4 kmh 29.51 in999.3 mb - 0.00 in0.0 mm 0.00 in0.0 mm
09:40 AM 25.5°F-3.6°C 23.5°F-4.7°C 92% 4.6 mph N7.4 kmh N 5.8 mph9.3 kmh 29.51 in999.3 mb - 0.00 in0.0 mm 0.00 in0.0 mm
09:45 AM 25.9°F-3.4°C 23.9°F-4.5°C 92% 3.5 mph NE5.6 kmh NE 4.6 mph7.4 kmh 29.51 in999.3 mb - 0.00 in0.0 mm 0.00 in0.0 mm
09:50 AM 26.1°F-3.3°C 24.1°F-4.4°C 92% 3.5 mph NNE5.6 kmh NNE 3.5 mph5.6 kmh 29.51 in999.3 mb - 0.00 in0.0 mm 0.00 in0.0 mm
09:55 AM 26.6°F-3.0°C 24.6°F-4.1°C 92% 3.5 mph NNE5.6 kmh NNE 3.5 mph5.6 kmh 29.51 in999.3 mb - 0.00 in0.0 mm 0.00 in0.0 mm
10:00 AM 26.7°F-2.9°C 24.7°F-4.1°C 92% 3.5 mph N5.6 kmh N 4.6 mph7.4 kmh 29.51 in999.3 mb - 0.00 in0.0 mm 0.00 in0.0 mm
10:10 AM 26.6°F-3.0°C 24.3°F-4.3°C 91% 3.5 mph NE5.6 kmh NE 4.6 mph7.4 kmh 29.51 in999.3 mb - 0.00 in0.0 mm 0.00 in0.0 mm
10:15 AM 26.6°F-3.0°C 24.3°F-4.3°C 91% 3.5 mph NE5.6 kmh NE 5.8 mph9.3 kmh 29.52 in999.7 mb - 0.00 in0.0 mm 0.00 in0.0 mm
10:20 AM 26.7°F-2.9°C 24.5°F-4.2°C 91% 3.5 mph NE5.6 kmh NE 4.6 mph7.4 kmh 29.52 in999.7 mb - 0.00 in0.0 mm 0.00 in0.0 mm
10:25 AM 26.3°F-3.2°C 23.8°F-4.6°C 90% 5.8 mph ENE9.3 kmh ENE 9.2 mph14.8 kmh 29.52 in999.7 mb - 0.00 in0.0 mm 0.00 in0.0 mm
10:30 AM 26.3°F-3.2°C 23.7°F-4.6°C 90% 5.8 mph NNE9.3 kmh NNE 5.8 mph9.3 kmh 29.55 in1000.7 mb - 0.00 in0.0 mm 0.00 in0.0 mm
10:35 AM 26.4°F-3.1°C 23.9°F-4.5°C 90% 5.8 mph N9.3 kmh N 4.6 mph7.4 kmh 29.58 in1001.7 mb - 0.00 in0.0 mm 0.00 in0.0 mm
10:40 AM 26.2°F-3.2°C 23.4°F-4.8°C 89% 6.9 mph NE11.1 kmh NE 5.8 mph9.3 kmh 29.58 in1001.7 mb - 0.00 in0.0 mm 0.00 in0.0 mm
10:45 AM 26.2°F-3.2°C 23.4°F-4.8°C 89% 6.9 mph NNE11.1 kmh NNE 6.9 mph11.1 kmh 29.57 in1001.4 mb - 0.00 in0.0 mm 0.00 in0.0 mm
10:50 AM 26.4°F-3.1°C 23.6°F-4.7°C 89% 5.8 mph NNE9.3 kmh NNE 5.8 mph9.3 kmh 29.57 in1001.4 mb - 0.00 in0.0 mm 0.00 in0.0 mm
10:55 AM 26.4°F-3.1°C 23.9°F-4.5°C 90% 4.6 mph N7.4 kmh N 5.8 mph9.3 kmh 29.57 in1001.4 mb - 0.00 in0.0 mm 0.00 in0.0 mm
11:00 AM 26.6°F-3.0°C 24.1°F-4.4°C 90% 4.6 mph NNE7.4 kmh NNE 5.8 mph9.3 kmh 29.57 in1001.4 mb - 0.00 in0.0 mm 0.00 in0.0 mm
11:10 AM 26.1°F-3.3°C 23.5°F-4.7°C 90% 4.6 mph NNE7.4 kmh NNE 3.5 mph5.6 kmh 29.57 in1001.4 mb - 0.00 in0.0 mm 0.00 in0.0 mm
11:15 AM 26.1°F-3.3°C 23.3°F-4.8°C 89% 5.8 mph NNW9.3 kmh NNW 4.6 mph7.4 kmh 29.57 in1001.4 mb - 0.00 in0.0 mm 0.00 in0.0 mm
11:20 AM 26.2°F-3.2°C 23.4°F-4.8°C 89% 5.8 mph NW9.3 kmh NW 8.1 mph13.0 kmh 29.57 in1001.4 mb - 0.00 in0.0 mm 0.00 in0.0 mm
11:25 AM 26.1°F-3.3°C 23.3°F-4.8°C 89% 6.9 mph N11.1 kmh N 8.1 mph13.0 kmh 29.57 in1001.4 mb - 0.00 in0.0 mm 0.00 in0.0 mm
11:30 AM 26.2°F-3.2°C 23.4°F-4.8°C 89% 6.9 mph NE11.1 kmh NE 8.1 mph13.0 kmh 29.57 in1001.4 mb - 0.00 in0.0 mm 0.00 in0.0 mm
11:35 AM 26.4°F-3.1°C 23.6°F-4.7°C 89% 5.8 mph NNE9.3 kmh NNE 6.9 mph11.1 kmh 29.57 in1001.4 mb - 0.00 in0.0 mm 0.00 in0.0 mm
11:40 AM 26.2°F-3.2°C 23.4°F-4.8°C 89% 5.8 mph 9.3 kmh 4.6 mph7.4 kmh 29.57 in1001.4 mb - 0.00 in0.0 mm 0.00 in0.0 mm
11:45 AM 26.1°F-3.3°C 23.3°F-4.8°C 89% 6.9 mph NNW11.1 kmh NNW 8.1 mph13.0 kmh 29.56 in1001.0 mb - 0.00 in0.0 mm 0.00 in0.0 mm
11:50 AM 26.2°F-3.2°C 23.4°F-4.8°C 89% 5.8 mph N9.3 kmh N 8.1 mph13.0 kmh 29.56 in1001.0 mb - 0.00 in0.0 mm 0.00 in0.0 mm
11:55 AM 26.1°F-3.3°C 23.3°F-4.8°C 89% 6.9 mph N11.1 kmh N 5.8 mph9.3 kmh 29.56 in1001.0 mb - 0.00 in0.0 mm 0.00 in0.0 mm
12:00 PM 26.1°F-3.3°C 23.3°F-4.8°C 89% 5.8 mph ENE9.3 kmh ENE 6.9 mph11.1 kmh 29.56 in1001.0 mb - 0.00 in0.0 mm 0.00 in0.0 mm
12:10 PM 26.4°F-3.1°C 23.9°F-4.5°C 90% 5.8 mph NNE9.3 kmh NNE 11.5 mph18.5 kmh 29.56 in1001.0 mb - 0.00 in0.0 mm 0.00 in0.0 mm
12:15 PM 26.6°F-3.0°C 24.1°F-4.4°C 90% 8.1 mph NNE13.0 kmh NNE 9.2 mph14.8 kmh 29.56 in1001.0 mb - 0.00 in0.0 mm 0.00 in0.0 mm
12:20 PM 26.9°F-2.8°C 24.4°F-4.2°C 90% 6.9 mph NNW11.1 kmh NNW 5.8 mph9.3 kmh 29.56 in1001.0 mb - 0.00 in0.0 mm 0.00 in0.0 mm
12:25 PM 27.0°F-2.8°C 24.4°F-4.2°C 90% 6.9 mph NNW11.1 kmh NNW 5.8 mph9.3 kmh 29.56 in1001.0 mb - 0.00 in0.0 mm 0.00 in0.0 mm
12:30 PM 27.2°F-2.7°C 24.6°F-4.1°C 90% 6.9 mph NNW11.1 kmh NNW 5.8 mph9.3 kmh 29.56 in1001.0 mb - 0.00 in0.0 mm 0.00 in0.0 mm
12:35 PM 27.1°F-2.7°C 24.3°F-4.3°C 89% 6.9 mph NNE11.1 kmh NNE 3.5 mph5.6 kmh 29.57 in1001.4 mb - 0.00 in0.0 mm 0.00 in0.0 mm
12:40 PM 27.3°F-2.6°C 24.5°F-4.2°C 89% 6.9 mph NNE11.1 kmh NNE 3.5 mph5.6 kmh 29.57 in1001.4 mb - 0.00 in0.0 mm 0.00 in0.0 mm
12:45 PM 27.7°F-2.4°C 24.9°F-3.9°C 89% 4.6 mph 7.4 kmh 3.5 mph5.6 kmh 29.56 in1001.0 mb - 0.00 in0.0 mm 0.00 in0.0 mm
12:50 PM 27.5°F-2.5°C 24.7°F-4.1°C 89% 4.6 mph 7.4 kmh 3.5 mph5.6 kmh 29.56 in1001.0 mb - 0.00 in0.0 mm 0.00 in0.0 mm
12:55 PM 27.5°F-2.5°C 24.7°F-4.1°C 89% 5.8 mph N9.3 kmh N 6.9 mph11.1 kmh 29.56 in1001.0 mb - 0.00 in0.0 mm 0.00 in0.0 mm
01:00 PM 27.7°F-2.4°C 24.6°F-4.1°C 88% 4.6 mph ENE7.4 kmh ENE 3.5 mph5.6 kmh 29.56 in1001.0 mb - 0.00 in0.0 mm 0.00 in0.0 mm
01:10 PM 27.7°F-2.4°C 24.6°F-4.1°C 88% 5.8 mph NNE9.3 kmh NNE 8.1 mph13.0 kmh 29.57 in1001.4 mb - 0.00 in0.0 mm 0.00 in0.0 mm
01:15 PM 28.0°F-2.2°C 24.9°F-3.9°C 88% 5.8 mph NNE9.3 kmh NNE 8.1 mph13.0 kmh 29.57 in1001.4 mb - 0.00 in0.0 mm 0.00 in0.0 mm
01:20 PM 28.0°F-2.2°C 24.9°F-3.9°C 88% 5.8 mph NNW9.3 kmh NNW 6.9 mph11.1 kmh 29.57 in1001.4 mb - 0.00 in0.0 mm 0.00 in0.0 mm
01:25 PM 28.1°F-2.2°C 25.0°F-3.9°C 88% 5.8 mph NNW9.3 kmh NNW 6.9 mph11.1 kmh 29.57 in1001.4 mb - 0.00 in0.0 mm 0.00 in0.0 mm
01:30 PM 28.2°F-2.1°C 25.1°F-3.8°C 88% 5.8 mph NNE9.3 kmh NNE 5.8 mph9.3 kmh 29.57 in1001.4 mb - 0.00 in0.0 mm 0.00 in0.0 mm
01:35 PM 28.2°F-2.1°C 25.1°F-3.8°C 88% 4.6 mph NE7.4 kmh NE 5.8 mph9.3 kmh 29.57 in1001.4 mb - 0.00 in0.0 mm 0.00 in0.0 mm
01:40 PM 28.6°F-1.9°C 25.5°F-3.6°C 88% 4.6 mph NE7.4 kmh NE 5.8 mph9.3 kmh 29.57 in1001.4 mb - 0.00 in0.0 mm 0.00 in0.0 mm
01:45 PM 28.6°F-1.9°C 25.5°F-3.6°C 88% 4.6 mph NNW7.4 kmh NNW 4.6 mph7.4 kmh 29.59 in1002.0 mb - 0.00 in0.0 mm 0.00 in0.0 mm
01:50 PM 28.9°F-1.7°C 25.8°F-3.4°C 88% 3.5 mph ENE5.6 kmh ENE 4.6 mph7.4 kmh 29.60 in1002.4 mb - 0.00 in0.0 mm 0.00 in0.0 mm
01:55 PM 29.0°F-1.7°C 25.9°F-3.4°C 88% 3.5 mph ENE5.6 kmh ENE 4.6 mph7.4 kmh 29.60 in1002.4 mb - 0.00 in0.0 mm 0.00 in0.0 mm
02:00 PM 29.1°F-1.6°C 26.0°F-3.3°C 88% 3.5 mph NNE5.6 kmh NNE 3.5 mph5.6 kmh 29.58 in1001.7 mb - 0.00 in0.0 mm 0.00 in0.0 mm
02:10 PM 29.3°F-1.5°C 25.9°F-3.4°C 87% 4.6 mph NNW7.4 kmh NNW 8.1 mph13.0 kmh 29.57 in1001.4 mb - 0.00 in0.0 mm 0.00 in0.0 mm
02:15 PM 29.5°F-1.4°C 25.8°F-3.4°C 86% 4.6 mph NNW7.4 kmh NNW 5.8 mph9.3 kmh 29.57 in1001.4 mb - 0.00 in0.0 mm 0.00 in0.0 mm
02:20 PM 29.7°F-1.3°C 26.0°F-3.3°C 86% 4.6 mph NNW7.4 kmh NNW 5.8 mph9.3 kmh 29.57 in1001.4 mb - 0.00 in0.0 mm 0.00 in0.0 mm
02:25 PM 29.5°F-1.4°C 25.2°F-3.8°C 84% 3.5 mph NNW5.6 kmh NNW 5.8 mph9.3 kmh 29.57 in1001.4 mb - 0.00 in0.0 mm 0.00 in0.0 mm
02:30 PM 29.5°F-1.4°C 25.2°F-3.8°C 84% 3.5 mph NNW5.6 kmh NNW 5.8 mph9.3 kmh 29.56 in1001.0 mb - 0.00 in0.0 mm 0.00 in0.0 mm
02:35 PM 29.5°F-1.4°C 25.0°F-3.9°C 83% 4.6 mph NNW7.4 kmh NNW 8.1 mph13.0 kmh 29.56 in1001.0 mb - 0.00 in0.0 mm 0.00 in0.0 mm
02:40 PM 29.5°F-1.4°C 25.2°F-3.8°C 84% 4.6 mph NNW7.4 kmh NNW 8.1 mph13.0 kmh 29.56 in1001.0 mb - 0.00 in0.0 mm 0.00 in0.0 mm
02:45 PM 29.5°F-1.4°C 25.0°F-3.9°C 83% 4.6 mph NW7.4 kmh NW 4.6 mph7.4 kmh 29.56 in1001.0 mb - 0.00 in0.0 mm 0.00 in0.0 mm
02:50 PM 29.5°F-1.4°C 25.0°F-3.9°C 83% 4.6 mph NW7.4 kmh NW 4.6 mph7.4 kmh 29.57 in1001.4 mb - 0.00 in0.0 mm 0.00 in0.0 mm
02:55 PM 29.3°F-1.5°C 24.8°F-4.0°C 83% 5.8 mph NNW9.3 kmh NNW 5.8 mph9.3 kmh 29.57 in1001.4 mb - 0.00 in0.0 mm 0.00 in0.0 mm
03:00 PM 29.3°F-1.5°C 24.8°F-4.0°C 83% 5.8 mph NNW9.3 kmh NNW 5.8 mph9.3 kmh 29.56 in1001.0 mb - 0.00 in0.0 mm 0.00 in0.0 mm
03:10 PM 29.3°F-1.5°C 24.8°F-4.0°C 83% 3.5 mph NNE5.6 kmh NNE 3.5 mph5.6 kmh 29.55 in1000.7 mb - 0.00 in0.0 mm 0.00 in0.0 mm
03:15 PM 29.1°F-1.6°C 24.6°F-4.1°C 83% 5.8 mph NNW9.3 kmh NNW 6.9 mph11.1 kmh 29.56 in1001.0 mb - 0.00 in0.0 mm 0.00 in0.0 mm
03:20 PM 29.1°F-1.6°C 24.6°F-4.1°C 83% 4.6 mph NNW7.4 kmh NNW 6.9 mph11.1 kmh 29.56 in1001.0 mb - 0.00 in0.0 mm 0.00 in0.0 mm
03:25 PM 29.1°F-1.6°C 24.6°F-4.1°C 83% 6.9 mph 11.1 kmh 4.6 mph7.4 kmh 29.56 in1001.0 mb - 0.00 in0.0 mm 0.00 in0.0 mm
03:30 PM 29.1°F-1.6°C 24.6°F-4.1°C 83% 5.8 mph NNW9.3 kmh NNW 6.9 mph11.1 kmh 29.56 in1001.0 mb - 0.00 in0.0 mm 0.00 in0.0 mm
03:35 PM 28.9°F-1.7°C 24.1°F-4.4°C 82% 5.8 mph NNW9.3 kmh NNW 6.9 mph11.1 kmh 29.56 in1001.0 mb - 0.00 in0.0 mm 0.00 in0.0 mm
03:40 PM 28.9°F-1.7°C 24.1°F-4.4°C 82% 4.6 mph NNW7.4 kmh NNW 6.9 mph11.1 kmh 29.56 in1001.0 mb - 0.00 in0.0 mm 0.00 in0.0 mm
03:45 PM 28.8°F-1.8°C 24.0°F-4.4°C 82% 6.9 mph NNW11.1 kmh NNW 8.1 mph13.0 kmh 29.56 in1001.0 mb - 0.00 in0.0 mm 0.00 in0.0 mm
03:50 PM 28.7°F-1.8°C 23.9°F-4.5°C 82% 5.8 mph NNW9.3 kmh NNW 5.8 mph9.3 kmh 29.56 in1001.0 mb - 0.00 in0.0 mm 0.00 in0.0 mm
03:55 PM 28.6°F-1.9°C 23.5°F-4.7°C 81% 6.9 mph N11.1 kmh N 9.2 mph14.8 kmh 29.56 in1001.0 mb - 0.00 in0.0 mm 0.00 in0.0 mm
04:00 PM 28.4°F-2.0°C 23.3°F-4.8°C 81% 5.8 mph NNW9.3 kmh NNW 5.8 mph9.3 kmh 29.58 in1001.7 mb - 0.00 in0.0 mm 0.00 in0.0 mm
04:10 PM 28.0°F-2.2°C 23.0°F-5.0°C 81% 5.8 mph NNW9.3 kmh NNW 9.2 mph14.8 kmh 29.59 in1002.0 mb - 0.00 in0.0 mm 0.00 in0.0 mm
04:15 PM 28.0°F-2.2°C 23.0°F-5.0°C 81% 5.8 mph NW9.3 kmh NW 6.9 mph11.1 kmh 29.58 in1001.7 mb - 0.00 in0.0 mm 0.00 in0.0 mm
04:20 PM 27.8°F-2.3°C 22.7°F-5.2°C 81% 5.8 mph NNW9.3 kmh NNW 6.9 mph11.1 kmh 29.57 in1001.4 mb - 0.00 in0.0 mm 0.00 in0.0 mm
04:25 PM 27.7°F-2.4°C 22.6°F-5.2°C 81% 5.8 mph NW9.3 kmh NW 8.1 mph13.0 kmh 29.57 in1001.4 mb - 0.00 in0.0 mm 0.00 in0.0 mm
04:30 PM 27.5°F-2.5°C 22.4°F-5.3°C 81% 4.6 mph NW7.4 kmh NW 5.8 mph9.3 kmh 29.57 in1001.4 mb - 0.00 in0.0 mm 0.00 in0.0 mm
04:35 PM 27.3°F-2.6°C 22.5°F-5.3°C 82% 4.6 mph NW7.4 kmh NW 5.8 mph9.3 kmh 29.57 in1001.4 mb - 0.00 in0.0 mm 0.00 in0.0 mm
04:40 PM 27.3°F-2.6°C 22.5°F-5.3°C 82% 4.6 mph NW7.4 kmh NW 6.9 mph11.1 kmh 29.57 in1001.4 mb - 0.00 in0.0 mm 0.00 in0.0 mm
04:45 PM 27.1°F-2.7°C 22.4°F-5.3°C 82% 5.8 mph NW9.3 kmh NW 4.6 mph7.4 kmh 29.59 in1002.0 mb - 0.00 in0.0 mm 0.00 in0.0 mm
04:50 PM 27.1°F-2.7°C 22.4°F-5.3°C 82% 5.8 mph NNW9.3 kmh NNW 6.9 mph11.1 kmh 29.60 in1002.4 mb - 0.00 in0.0 mm 0.00 in0.0 mm
04:55 PM 27.1°F-2.7°C 22.4°F-5.3°C 82% 4.6 mph NNW7.4 kmh NNW 4.6 mph7.4 kmh 29.60 in1002.4 mb - 0.00 in0.0 mm 0.00 in0.0 mm
05:00 PM 27.0°F-2.8°C 22.2°F-5.4°C 82% 5.8 mph WNW9.3 kmh WNW 4.6 mph7.4 kmh 29.59 in1002.0 mb - 0.00 in0.0 mm 0.00 in0.0 mm
05:10 PM 26.8°F-2.9°C 22.0°F-5.6°C 82% 6.9 mph WNW11.1 kmh WNW 8.1 mph13.0 kmh 29.57 in1001.4 mb - 0.00 in0.0 mm 0.00 in0.0 mm
05:15 PM 26.8°F-2.9°C 22.0°F-5.6°C 82% 4.6 mph NNW7.4 kmh NNW 6.9 mph11.1 kmh 29.58 in1001.7 mb - 0.00 in0.0 mm 0.00 in0.0 mm
05:20 PM 26.7°F-2.9°C 22.0°F-5.6°C 82% 6.9 mph NW11.1 kmh NW 9.2 mph14.8 kmh 29.58 in1001.7 mb - 0.00 in0.0 mm 0.00 in0.0 mm
05:25 PM 26.6°F-3.0°C 21.8°F-5.7°C 82% 5.8 mph WNW9.3 kmh WNW 6.9 mph11.1 kmh 29.58 in1001.7 mb - 0.00 in0.0 mm 0.00 in0.0 mm
05:30 PM 26.6°F-3.0°C 21.8°F-5.7°C 82% 5.8 mph NW9.3 kmh NW 9.2 mph14.8 kmh 29.58 in1001.7 mb - 0.00 in0.0 mm 0.00 in0.0 mm
05:35 PM 26.6°F-3.0°C 21.8°F-5.7°C 82% 4.6 mph NNW7.4 kmh NNW 5.8 mph9.3 kmh 29.58 in1001.7 mb - 0.00 in0.0 mm 0.00 in0.0 mm
05:40 PM 26.4°F-3.1°C 21.7°F-5.7°C 82% 5.8 mph NNW9.3 kmh NNW 5.8 mph9.3 kmh 29.58 in1001.7 mb - 0.00 in0.0 mm 0.00 in0.0 mm
05:45 PM 26.4°F-3.1°C 21.7°F-5.7°C 82% 5.8 mph NNW9.3 kmh NNW 8.1 mph13.0 kmh 29.59 in1002.0 mb - 0.00 in0.0 mm 0.00 in0.0 mm
05:50 PM 26.4°F-3.1°C 21.7°F-5.7°C 82% 5.8 mph NW9.3 kmh NW 5.8 mph9.3 kmh 29.59 in1002.0 mb - 0.00 in0.0 mm 0.00 in0.0 mm
05:55 PM 26.4°F-3.1°C 21.7°F-5.7°C 82% 5.8 mph WNW9.3 kmh WNW 8.1 mph13.0 kmh 29.59 in1002.0 mb - 0.00 in0.0 mm 0.00 in0.0 mm
06:00 PM 26.2°F-3.2°C 21.5°F-5.8°C 82% 5.8 mph NNW9.3 kmh NNW 8.1 mph13.0 kmh 29.59 in1002.0 mb - 0.00 in0.0 mm 0.00 in0.0 mm
06:10 PM 26.1°F-3.3°C 21.3°F-5.9°C 82% 4.6 mph NNW7.4 kmh NNW 6.9 mph11.1 kmh 29.59 in1002.0 mb - 0.00 in0.0 mm 0.00 in0.0 mm
06:15 PM 26.1°F-3.3°C 21.3°F-5.9°C 82% 5.8 mph N9.3 kmh N 8.1 mph13.0 kmh 29.54 in1000.3 mb - 0.00 in0.0 mm 0.00 in0.0 mm
06:20 PM 26.1°F-3.3°C 21.3°F-5.9°C 82% 5.8 mph NW9.3 kmh NW 9.2 mph14.8 kmh 29.54 in1000.3 mb - 0.00 in0.0 mm 0.00 in0.0 mm
06:25 PM 26.1°F-3.3°C 21.3°F-5.9°C 82% 4.6 mph NNW7.4 kmh NNW 8.1 mph13.0 kmh 29.54 in1000.3 mb - 0.00 in0.0 mm 0.00 in0.0 mm
06:40 PM 26.1°F-3.3°C 21.3°F-5.9°C 82% 4.6 mph NW7.4 kmh NW 5.8 mph9.3 kmh 29.55 in1000.7 mb - 0.00 in0.0 mm 0.00 in0.0 mm
06:45 PM 25.7°F-3.5°C 21.0°F-6.1°C 82% 4.6 mph NNW7.4 kmh NNW 5.8 mph9.3 kmh 29.55 in1000.7 mb - 0.00 in0.0 mm 0.00 in0.0 mm
06:50 PM 25.5°F-3.6°C 20.8°F-6.2°C 82% 5.8 mph NNW9.3 kmh NNW 6.9 mph11.1 kmh 29.55 in1000.7 mb - 0.00 in0.0 mm 0.00 in0.0 mm
06:55 PM 25.7°F-3.5°C 21.2°F-6.0°C 83% 4.6 mph NNW7.4 kmh NNW 3.5 mph5.6 kmh 29.55 in1000.7 mb - 0.00 in0.0 mm 0.00 in0.0 mm
07:00 PM 25.5°F-3.6°C 21.1°F-6.1°C 83% 4.6 mph WNW7.4 kmh WNW 4.6 mph7.4 kmh 29.56 in1001.0 mb - 0.00 in0.0 mm 0.00 in0.0 mm
07:10 PM 25.3°F-3.7°C 20.9°F-6.2°C 83% 5.8 mph NNW9.3 kmh NNW 6.9 mph11.1 kmh 29.56 in1001.0 mb - 0.00 in0.0 mm 0.00 in0.0 mm
07:15 PM 25.3°F-3.7°C 20.9°F-6.2°C 83% 5.8 mph NNW9.3 kmh NNW 5.8 mph9.3 kmh 29.55 in1000.7 mb - 0.00 in0.0 mm 0.00 in0.0 mm
07:20 PM 25.2°F-3.8°C 20.7°F-6.3°C 83% 5.8 mph NNW9.3 kmh NNW 6.9 mph11.1 kmh 29.55 in1000.7 mb - 0.00 in0.0 mm 0.00 in0.0 mm
07:25 PM 25.2°F-3.8°C 20.7°F-6.3°C 83% 4.6 mph NW7.4 kmh NW 5.8 mph9.3 kmh 29.55 in1000.7 mb - 0.00 in0.0 mm 0.00 in0.0 mm
07:30 PM 25.0°F-3.9°C 20.5°F-6.4°C 83% 4.6 mph NNW7.4 kmh NNW 5.8 mph9.3 kmh 29.56 in1001.0 mb - 0.00 in0.0 mm 0.00 in0.0 mm
07:35 PM 24.8°F-4.0°C 20.4°F-6.4°C 83% 4.6 mph NW7.4 kmh NW 5.8 mph9.3 kmh 29.56 in1001.0 mb - 0.00 in0.0 mm 0.00 in0.0 mm
07:40 PM 24.8°F-4.0°C 20.7°F-6.3°C 84% 4.6 mph NW7.4 kmh NW 6.9 mph11.1 kmh 29.56 in1001.0 mb - 0.00 in0.0 mm 0.00 in0.0 mm
07:45 PM 24.8°F-4.0°C 20.7°F-6.3°C 84% 5.8 mph NNW9.3 kmh NNW 6.9 mph11.1 kmh 29.57 in1001.4 mb - 0.00 in0.0 mm 0.00 in0.0 mm
07:50 PM 24.6°F-4.1°C 20.5°F-6.4°C 84% 5.8 mph NNW9.3 kmh NNW 6.9 mph11.1 kmh 29.57 in1001.4 mb - 0.00 in0.0 mm 0.00 in0.0 mm
07:55 PM 24.6°F-4.1°C 20.5°F-6.4°C 84% 4.6 mph NNW7.4 kmh NNW 6.9 mph11.1 kmh 29.57 in1001.4 mb - 0.00 in0.0 mm 0.00 in0.0 mm
08:00 PM 24.6°F-4.1°C 20.5°F-6.4°C 84% 5.8 mph NNW9.3 kmh NNW 6.9 mph11.1 kmh 29.57 in1001.4 mb - 0.00 in0.0 mm 0.00 in0.0 mm
08:10 PM 24.6°F-4.1°C 20.5°F-6.4°C 84% 4.6 mph WNW7.4 kmh WNW 3.5 mph5.6 kmh 29.57 in1001.4 mb - 0.00 in0.0 mm 0.00 in0.0 mm
08:15 PM 24.6°F-4.1°C 20.5°F-6.4°C 84% 4.6 mph NNW7.4 kmh NNW 8.1 mph13.0 kmh 29.57 in1001.4 mb - 0.00 in0.0 mm 0.00 in0.0 mm
08:20 PM 24.6°F-4.1°C 20.5°F-6.4°C 84% 4.6 mph NW7.4 kmh NW 6.9 mph11.1 kmh 29.57 in1001.4 mb - 0.00 in0.0 mm 0.00 in0.0 mm
08:25 PM 24.7°F-4.1°C 20.6°F-6.3°C 84% 5.8 mph NW9.3 kmh NW 8.1 mph13.0 kmh 29.57 in1001.4 mb - 0.00 in0.0 mm 0.00 in0.0 mm
08:30 PM 24.8°F-4.0°C 20.7°F-6.3°C 84% 5.8 mph NNW9.3 kmh NNW 6.9 mph11.1 kmh 29.57 in1001.4 mb - 0.00 in0.0 mm 0.00 in0.0 mm
08:35 PM 25.0°F-3.9°C 20.8°F-6.2°C 84% 5.8 mph NNW9.3 kmh NNW 5.8 mph9.3 kmh 29.57 in1001.4 mb - 0.00 in0.0 mm 0.00 in0.0 mm
08:40 PM 25.0°F-3.9°C 20.8°F-6.2°C 84% 5.8 mph NW9.3 kmh NW 5.8 mph9.3 kmh 29.57 in1001.4 mb - 0.00 in0.0 mm 0.00 in0.0 mm
08:45 PM 25.2°F-3.8°C 21.0°F-6.1°C 84% 5.8 mph NNW9.3 kmh NNW 6.9 mph11.1 kmh 29.58 in1001.7 mb - 0.00 in0.0 mm 0.00 in0.0 mm
08:50 PM 25.3°F-3.7°C 21.2°F-6.0°C 84% 6.9 mph NNW11.1 kmh NNW 8.1 mph13.0 kmh 29.58 in1001.7 mb - 0.00 in0.0 mm 0.00 in0.0 mm
08:55 PM 25.3°F-3.7°C 20.9°F-6.2°C 83% 5.8 mph NW9.3 kmh NW 10.4 mph16.7 kmh 29.58 in1001.7 mb - 0.00 in0.0 mm 0.00 in0.0 mm
09:00 PM 25.5°F-3.6°C 21.1°F-6.1°C 83% 8.1 mph NNW13.0 kmh NNW 10.4 mph16.7 kmh 29.57 in1001.4 mb - 0.00 in0.0 mm 0.00 in0.0 mm
09:10 PM 25.7°F-3.5°C 21.3°F-5.9°C 83% 8.1 mph NNW13.0 kmh NNW 6.9 mph11.1 kmh 29.57 in1001.4 mb - 0.00 in0.0 mm 0.00 in0.0 mm
09:15 PM 25.7°F-3.5°C 21.0°F-6.1°C 82% 8.1 mph NNW13.0 kmh NNW 8.1 mph13.0 kmh 29.57 in1001.4 mb - 0.00 in0.0 mm 0.00 in0.0 mm
09:20 PM 25.7°F-3.5°C 21.0°F-6.1°C 82% 6.9 mph NNW11.1 kmh NNW 10.4 mph16.7 kmh 29.57 in1001.4 mb - 0.00 in0.0 mm 0.00 in0.0 mm
09:25 PM 25.8°F-3.4°C 21.1°F-6.1°C 82% 8.1 mph NNW13.0 kmh NNW 9.2 mph14.8 kmh 29.57 in1001.4 mb - 0.00 in0.0 mm 0.00 in0.0 mm
09:30 PM 25.9°F-3.4°C 21.1°F-6.1°C 82% 6.9 mph NNW11.1 kmh NNW 11.5 mph18.5 kmh 29.58 in1001.7 mb - 0.00 in0.0 mm 0.00 in0.0 mm
09:35 PM 26.1°F-3.3°C 21.3°F-5.9°C 82% 8.1 mph NW13.0 kmh NW 10.4 mph16.7 kmh 29.58 in1001.7 mb - 0.00 in0.0 mm 0.00 in0.0 mm
09:40 PM 26.1°F-3.3°C 21.3°F-5.9°C 82% 8.1 mph NW13.0 kmh NW 8.1 mph13.0 kmh 29.58 in1001.7 mb - 0.00 in0.0 mm 0.00 in0.0 mm
09:45 PM 26.2°F-3.2°C 21.5°F-5.8°C 82% 8.1 mph NNW13.0 kmh NNW 11.5 mph18.5 kmh 29.57 in1001.4 mb - 0.00 in0.0 mm 0.00 in0.0 mm
09:50 PM 26.2°F-3.2°C 21.5°F-5.8°C 82% 8.1 mph NNW13.0 kmh NNW 8.1 mph13.0 kmh 29.57 in1001.4 mb - 0.00 in0.0 mm 0.00 in0.0 mm
09:55 PM 26.2°F-3.2°C 21.5°F-5.8°C 82% 6.9 mph N11.1 kmh N 10.4 mph16.7 kmh 29.57 in1001.4 mb - 0.00 in0.0 mm 0.00 in0.0 mm
10:00 PM 26.2°F-3.2°C 21.5°F-5.8°C 82% 8.1 mph NNW13.0 kmh NNW 8.1 mph13.0 kmh 29.58 in1001.7 mb - 0.00 in0.0 mm 0.00 in0.0 mm
10:10 PM 26.4°F-3.1°C 21.7°F-5.7°C 82% 6.9 mph N11.1 kmh N 10.4 mph16.7 kmh 29.58 in1001.7 mb - 0.00 in0.0 mm 0.00 in0.0 mm
10:15 PM 26.4°F-3.1°C 21.7°F-5.7°C 82% 8.1 mph NNW13.0 kmh NNW 11.5 mph18.5 kmh 29.59 in1002.0 mb - 0.00 in0.0 mm 0.00 in0.0 mm
10:20 PM 26.3°F-3.2°C 21.2°F-6.0°C 81% 5.8 mph N9.3 kmh N 6.9 mph11.1 kmh 29.59 in1002.0 mb - 0.00 in0.0 mm 0.00 in0.0 mm
10:25 PM 26.3°F-3.2°C 21.3°F-5.9°C 81% 5.8 mph NW9.3 kmh NW 5.8 mph9.3 kmh 29.59 in1002.0 mb - 0.00 in0.0 mm 0.00 in0.0 mm
10:30 PM 26.4°F-3.1°C 21.4°F-5.9°C 81% 8.1 mph NNW13.0 kmh NNW 6.9 mph11.1 kmh 29.59 in1002.0 mb - 0.00 in0.0 mm 0.00 in0.0 mm
10:35 PM 26.2°F-3.2°C 21.2°F-6.0°C 81% 6.9 mph N11.1 kmh N 6.9 mph11.1 kmh 29.59 in1002.0 mb - 0.00 in0.0 mm 0.00 in0.0 mm
10:40 PM 26.2°F-3.2°C 21.2°F-6.0°C 81% 6.9 mph N11.1 kmh N 8.1 mph13.0 kmh 29.59 in1002.0 mb - 0.00 in0.0 mm 0.00 in0.0 mm
10:45 PM 26.2°F-3.2°C 21.2°F-6.0°C 81% 5.8 mph NNW9.3 kmh NNW 8.1 mph13.0 kmh 29.59 in1002.0 mb - 0.00 in0.0 mm 0.00 in0.0 mm
10:50 PM 26.1°F-3.3°C 21.1°F-6.1°C 81% 5.8 mph NNW9.3 kmh NNW 5.8 mph9.3 kmh 29.59 in1002.0 mb - 0.00 in0.0 mm 0.00 in0.0 mm
10:55 PM 26.0°F-3.3°C 20.9°F-6.2°C 81% 6.9 mph NNW11.1 kmh NNW 6.9 mph11.1 kmh 29.59 in1002.0 mb - 0.00 in0.0 mm 0.00 in0.0 mm
11:00 PM 25.9°F-3.4°C 20.9°F-6.2°C 81% 6.9 mph NNW11.1 kmh NNW 9.2 mph14.8 kmh 29.59 in1002.0 mb - 0.00 in0.0 mm 0.00 in0.0 mm
11:10 PM 25.7°F-3.5°C 20.7°F-6.3°C 81% 6.9 mph NNW11.1 kmh NNW 8.1 mph13.0 kmh 29.59 in1002.0 mb - 0.00 in0.0 mm 0.00 in0.0 mm
11:15 PM 25.5°F-3.6°C 20.5°F-6.4°C 81% 6.9 mph NNW11.1 kmh NNW 8.1 mph13.0 kmh 29.59 in1002.0 mb - 0.00 in0.0 mm 0.00 in0.0 mm
11:20 PM 25.5°F-3.6°C 20.5°F-6.4°C 81% 5.8 mph NNW9.3 kmh NNW 5.8 mph9.3 kmh 29.59 in1002.0 mb - 0.00 in0.0 mm 0.00 in0.0 mm
11:25 PM 25.4°F-3.7°C 20.4°F-6.4°C 81% 5.8 mph NNW9.3 kmh NNW 6.9 mph11.1 kmh 29.59 in1002.0 mb - 0.00 in0.0 mm 0.00 in0.0 mm
11:30 PM 25.5°F-3.6°C 20.5°F-6.4°C 81% 5.8 mph N9.3 kmh N 5.8 mph9.3 kmh 29.59 in1002.0 mb - 0.00 in0.0 mm 0.00 in0.0 mm
11:35 PM 25.5°F-3.6°C 20.5°F-6.4°C 81% 4.6 mph N7.4 kmh N 5.8 mph9.3 kmh 29.59 in1002.0 mb - 0.00 in0.0 mm 0.00 in0.0 mm
11:40 PM 25.5°F-3.6°C 20.5°F-6.4°C 81% 5.8 mph NNW9.3 kmh NNW 6.9 mph11.1 kmh 29.59 in1002.0 mb - 0.00 in0.0 mm 0.00 in0.0 mm
11:45 PM 25.7°F-3.5°C 20.7°F-6.3°C 81% 4.6 mph N7.4 kmh N 4.6 mph7.4 kmh 29.60 in1002.4 mb - 0.00 in0.0 mm 0.00 in0.0 mm
11:50 PM 25.7°F-3.5°C 20.7°F-6.3°C 81% 5.8 mph NNW9.3 kmh NNW 6.9 mph11.1 kmh 29.60 in1002.4 mb - 0.00 in0.0 mm 0.00 in0.0 mm
11:55 PM 25.6°F-3.6°C 20.3°F-6.5°C 80% 5.8 mph N9.3 kmh N 6.9 mph11.1 kmh 29.60 in1002.4 mb - 0.00 in0.0 mm 0.00 in0.0 mm